createdAt,value
2019-06-07T00:00:53.669Z,29.10
2019-06-07T00:03:27.451Z,30.03
2019-06-07T00:05:50.724Z,30.10
2019-06-07T00:08:24.851Z,30.40
2019-06-07T00:10:45.195Z,29.90
2019-06-07T00:13:12.909Z,32.03
2019-06-07T00:15:39.785Z,32.00
2019-06-07T00:18:10.248Z,29.30
2019-06-07T00:20:34.280Z,30.67
2019-06-07T00:23:00.562Z,31.57
2019-06-07T00:25:26.777Z,31.13
2019-06-07T00:27:53.079Z,33.50
2019-06-07T00:30:37.626Z,31.40
2019-06-07T00:32:47.732Z,32.20
2019-06-07T00:35:15.383Z,30.57
2019-06-07T00:37:42.383Z,29.77
2019-06-07T00:40:16.178Z,29.40
2019-06-07T00:42:37.154Z,29.93
2019-06-07T00:45:07.182Z,28.13
2019-06-07T00:47:33.293Z,29.80
2019-06-07T00:49:59.554Z,29.73
2019-06-07T00:54:53.989Z,30.37
2019-06-07T00:57:22.224Z,31.30
2019-06-07T00:59:48.460Z,31.27
2019-06-07T01:02:16.678Z,30.60
2019-06-07T01:04:42.794Z,26.40
2019-06-07T01:07:08.900Z,28.23
2019-06-07T01:09:35.041Z,27.57
2019-06-07T01:12:01.256Z,28.40
2019-06-07T01:14:28.692Z,27.33
2019-06-07T01:17:01.488Z,27.77
2019-06-07T01:19:26.420Z,26.00
2019-06-07T01:21:51.660Z,28.53
2019-06-07T01:24:17.864Z,30.90
2019-06-07T01:26:44.102Z,29.47
2019-06-07T01:29:10.322Z,27.03
2019-06-07T01:31:36.695Z,26.60
2019-06-07T01:34:03.025Z,28.37
2019-06-07T01:36:31.006Z,26.90
2019-06-07T01:38:57.475Z,26.47
2019-06-07T01:41:25.902Z,30.47
2019-06-07T01:43:51.717Z,27.90
2019-06-07T01:46:18.212Z,27.80
2019-06-07T01:48:49.398Z,30.07
2019-06-07T01:51:13.085Z,27.90
2019-06-07T01:53:39.187Z,25.70
2019-06-07T01:56:05.468Z,25.23
2019-06-07T01:58:31.554Z,24.70
2019-06-07T02:00:57.668Z,24.33
2019-06-07T02:03:28.086Z,25.63
2019-06-07T02:05:51.983Z,24.57
2019-06-07T02:08:20.042Z,23.70
2019-06-07T02:10:46.178Z,23.77
2019-06-07T02:13:13.423Z,23.90
2019-06-07T02:15:39.648Z,25.23
2019-06-07T02:18:05.982Z,25.17
2019-06-07T02:20:34.512Z,27.93
2019-06-07T02:23:00.104Z,27.60
2019-06-07T02:25:49.584Z,25.50
2019-06-07T02:28:11.102Z,26.07
2019-06-07T02:30:47.078Z,27.43
2019-06-07T02:32:50.402Z,30.10
2019-06-07T02:35:16.808Z,27.67
2019-06-07T02:37:43.028Z,27.53
2019-06-07T02:40:12.360Z,27.63
2019-06-07T02:42:42.672Z,27.40
2019-06-07T02:45:07.923Z,28.67
2019-06-07T02:47:37.677Z,28.40
2019-06-07T02:50:06.558Z,26.00
2019-06-07T02:52:38.694Z,27.13
2019-06-07T02:55:00.753Z,28.77
2019-06-07T02:57:29.298Z,28.33
2019-06-07T03:00:16.569Z,27.40
2019-06-07T03:02:25.552Z,27.53
2019-06-07T03:04:51.492Z,27.93
2019-06-07T03:07:18.343Z,26.83
2019-06-07T03:09:45.358Z,28.87
2019-06-07T03:12:12.347Z,26.83
2019-06-07T03:14:39.593Z,28.23
2019-06-07T03:17:19.850Z,28.00
2019-06-07T03:19:48.898Z,27.27
2019-06-07T03:22:15.228Z,28.50
2019-06-07T03:24:44.168Z,25.57
2019-06-07T03:27:34.020Z,27.60
2019-06-07T03:29:41.367Z,26.10
2019-06-07T03:32:07.824Z,25.03
2019-06-07T03:34:39.275Z,24.43
2019-06-07T03:37:02.389Z,25.87
2019-06-07T03:39:29.656Z,27.73
2019-06-07T03:42:06.398Z,27.77
2019-06-07T03:44:25.252Z,23.73
2019-06-07T03:46:51.388Z,26.00
2019-06-07T03:49:17.504Z,25.73
2019-06-07T03:51:44.757Z,24.80
2019-06-07T03:54:10.932Z,24.43
2019-06-07T03:56:38.627Z,23.87
2019-06-07T03:59:05.359Z,25.03
2019-06-07T04:01:32.342Z,22.23
2019-06-07T04:03:59.061Z,23.50
2019-06-07T04:06:25.195Z,23.23
2019-06-07T04:08:51.586Z,22.80
2019-06-07T04:11:17.679Z,22.13
2019-06-07T04:13:43.894Z,21.10
2019-06-07T04:16:10.308Z,20.97
2019-06-07T04:18:40.868Z,19.63
2019-06-07T04:21:04.633Z,18.70
2019-06-07T04:23:33.130Z,19.70
2019-06-07T04:25:59.114Z,19.17
2019-06-07T04:29:15.617Z,20.47
2019-06-07T04:30:53.333Z,19.60
2019-06-07T04:33:20.580Z,19.90
2019-06-07T04:35:47.022Z,18.93
2019-06-07T04:38:14.084Z,19.80
2019-06-07T04:40:43.933Z,18.20
2019-06-07T04:43:11.250Z,18.73
2019-06-07T04:45:45.867Z,17.43
2019-06-07T04:48:06.408Z,17.23
2019-06-07T04:50:34.302Z,16.83
2019-06-07T04:53:03.332Z,16.17
2019-06-07T04:55:29.646Z,17.37
2019-06-07T04:57:57.096Z,15.87
2019-06-07T05:02:57.983Z,15.50
2019-06-07T05:05:24.487Z,16.43
2019-06-07T05:07:50.580Z,15.80
2019-06-07T05:10:16.693Z,16.00
2019-06-07T05:12:44.189Z,15.60
2019-06-07T05:15:10.930Z,15.63
2019-06-07T05:17:39.933Z,15.30
2019-06-07T05:20:05.644Z,14.80
2019-06-07T05:22:34.923Z,15.80
2019-06-07T05:24:59.882Z,14.67
2019-06-07T05:27:26.157Z,14.30
2019-06-07T05:30:09.517Z,15.07
2019-06-07T05:32:20.564Z,15.00
2019-06-07T05:34:47.549Z,13.13
2019-06-07T05:37:13.917Z,13.80
2019-06-07T05:39:43.260Z,13.87
2019-06-07T05:42:08.259Z,13.70
2019-06-07T05:44:36.371Z,12.30
2019-06-07T05:47:02.908Z,12.60
2019-06-07T05:49:29.231Z,11.47
2019-06-07T05:51:55.471Z,11.47
2019-06-07T05:54:21.679Z,20.37
2019-06-07T05:56:48.998Z,11.13
2019-06-07T05:59:15.495Z,10.03
2019-06-07T06:01:48.021Z,9.90
2019-06-07T06:04:09.877Z,9.33
2019-06-07T06:06:36.407Z,9.70
2019-06-07T06:10:10.748Z,8.97
2019-06-07T06:12:40.831Z,10.43
2019-06-07T06:15:06.307Z,9.40
2019-06-07T06:17:32.394Z,9.43
2019-06-07T06:19:58.768Z,9.97
2019-06-07T06:22:24.911Z,10.07
2019-06-07T06:25:29.703Z,10.10
2019-06-07T06:28:02.582Z,10.00
2019-06-07T06:29:50.420Z,10.43
2019-06-07T06:32:41.073Z,10.90
2019-06-07T06:34:47.090Z,9.90
2019-06-07T06:37:11.960Z,10.70
2019-06-07T06:39:39.466Z,10.70
2019-06-07T06:42:05.630Z,11.47
2019-06-07T06:44:31.713Z,11.37
2019-06-07T06:46:58.652Z,11.03
2019-06-07T06:49:24.808Z,12.17
2019-06-07T06:51:53.630Z,11.63
2019-06-07T06:54:39.486Z,11.97
2019-06-07T06:56:47.600Z,10.93
2019-06-07T06:59:38.047Z,11.97
2019-06-07T07:01:45.140Z,12.70
2019-06-07T07:04:13.586Z,14.07
2019-06-07T07:06:41.497Z,14.50
2019-06-07T07:09:08.354Z,13.33
2019-06-07T07:11:52.241Z,13.83
2019-06-07T07:14:03.382Z,14.40
2019-06-07T07:16:29.484Z,14.23
2019-06-07T07:18:55.551Z,15.27
2019-06-07T07:21:21.632Z,15.63
2019-06-07T07:24:15.153Z,15.70
2019-06-07T07:26:15.767Z,16.37
2019-06-07T07:28:43.074Z,15.17
2019-06-07T07:31:09.966Z,14.77
2019-06-07T07:36:22.684Z,14.43
2019-06-07T07:38:32.398Z,15.50
2019-06-07T07:41:14.677Z,14.83
2019-06-07T07:43:26.567Z,13.73
2019-06-07T07:45:59.242Z,13.10
2019-06-07T07:48:20.878Z,12.63
2019-06-07T07:50:49.893Z,12.45
2019-06-07T07:53:15.208Z,12.50
2019-06-07T07:55:41.337Z,11.60
2019-06-07T07:58:07.528Z,10.60
2019-06-07T08:00:52.234Z,10.47
2019-06-07T08:03:04.486Z,10.93
2019-06-07T08:05:42.475Z,11.47
2019-06-07T08:08:01.586Z,10.38
2019-06-07T08:10:27.217Z,10.93
2019-06-07T08:13:16.282Z,11.20
2019-06-07T08:15:21.607Z,11.67
2019-06-07T08:17:50.748Z,12.83
2019-06-07T08:20:16.283Z,12.50
2019-06-07T08:22:42.601Z,13.33
2019-06-07T08:25:09.440Z,13.10
2019-06-07T08:27:35.737Z,14.60
2019-06-07T08:30:35.446Z,14.70
2019-06-07T08:32:35.830Z,13.90
2019-06-07T08:35:06.956Z,13.70
2019-06-07T08:38:14.048Z,13.83
2019-06-07T08:40:06.225Z,12.70
2019-06-07T08:42:37.540Z,13.40
2019-06-07T08:45:03.646Z,12.63
2019-06-07T08:47:28.663Z,13.78
2019-06-07T08:49:59.303Z,14.23
2019-06-07T08:52:22.862Z,13.90
2019-06-07T08:54:49.059Z,13.72
2019-06-07T08:57:21.397Z,12.67
2019-06-07T08:59:44.209Z,11.25
2019-06-07T09:02:23.215Z,10.47
2019-06-07T09:04:38.501Z,11.68
2019-06-07T09:07:18.435Z,12.03
2019-06-07T09:09:32.826Z,11.57
2019-06-07T09:12:03.233Z,10.70
2019-06-07T09:14:27.116Z,9.98
2019-06-07T09:16:58.792Z,10.58
2019-06-07T09:19:21.338Z,11.20
2019-06-07T09:21:47.457Z,10.40
2019-06-07T09:24:13.540Z,9.78
2019-06-07T09:26:39.818Z,8.50
2019-06-07T09:29:09.469Z,8.58
2019-06-07T09:31:51.889Z,9.03
2019-06-07T09:34:06.628Z,8.60
2019-06-07T09:36:30.333Z,10.38
2019-06-07T09:38:58.834Z,10.53
2019-06-07T09:41:46.177Z,9.28
2019-06-07T09:44:04.740Z,9.88
2019-06-07T09:46:20.735Z,9.80
2019-06-07T09:49:10.743Z,10.48
2019-06-07T09:51:19.839Z,10.85
2019-06-07T09:53:43.116Z,8.87
2019-06-07T09:56:12.043Z,8.28
2019-06-07T09:58:54.210Z,9.55
2019-06-07T10:01:12.222Z,8.18
2019-06-07T10:03:33.404Z,6.83
2019-06-07T10:06:00.413Z,8.40
2019-06-07T10:09:42.405Z,7.78
2019-06-07T10:10:55.663Z,7.08
2019-06-07T10:13:21.869Z,8.33
2019-06-07T10:15:47.958Z,8.53
2019-06-07T10:18:14.153Z,7.95
2019-06-07T10:20:40.366Z,8.48
2019-06-07T10:23:07.980Z,7.08
2019-06-07T10:25:34.751Z,6.87
2019-06-07T10:28:01.949Z,6.70
2019-06-07T10:30:28.048Z,6.42
2019-06-07T10:32:54.440Z,7.83
2019-06-07T10:35:20.639Z,5.67
2019-06-07T10:37:47.850Z,6.15
2019-06-07T10:40:14.661Z,5.72
2019-06-07T10:42:40.749Z,5.90
2019-06-07T10:45:08.287Z,5.83
2019-06-07T10:47:35.745Z,6.12
2019-06-07T10:50:03.792Z,6.05
2019-06-07T10:52:31.177Z,5.70
2019-06-07T10:54:57.575Z,6.22
2019-06-07T10:57:23.657Z,6.05
2019-06-07T10:59:49.851Z,6.60
2019-06-07T11:02:16.592Z,6.40
2019-06-07T11:04:42.794Z,6.30
2019-06-07T11:07:10.113Z,4.92
2019-06-07T11:09:36.507Z,5.78
2019-06-07T11:12:04.237Z,4.85
2019-06-07T11:14:30.719Z,4.80
2019-06-07T11:16:57.060Z,4.62
2019-06-07T11:19:23.160Z,5.10
2019-06-07T11:21:49.620Z,4.90
2019-06-07T11:24:18.713Z,4.70
2019-06-07T11:26:44.287Z,4.72
2019-06-07T11:29:11.044Z,4.87
2019-06-07T11:31:38.655Z,4.72
2019-06-07T11:34:06.262Z,5.12
2019-06-07T11:36:32.601Z,4.85
2019-06-07T11:38:58.803Z,4.08
2019-06-07T11:41:25.002Z,4.37
2019-06-07T11:43:51.215Z,4.65
2019-06-07T11:46:17.398Z,4.37
2019-06-07T11:48:43.585Z,4.70
2019-06-07T11:51:10.802Z,4.70
2019-06-07T11:53:37.130Z,4.22
2019-06-07T11:56:03.419Z,4.17
2019-06-07T11:58:29.633Z,4.15
2019-06-07T12:00:56.062Z,3.80
2019-06-07T12:03:22.258Z,4.10
2019-06-07T12:05:48.359Z,3.62
2019-06-07T12:08:14.451Z,4.30
2019-06-07T12:10:42.748Z,4.25
2019-06-07T12:13:10.364Z,3.95
2019-06-07T12:15:36.582Z,3.30
2019-06-07T12:18:02.841Z,4.50
2019-06-07T12:20:29.073Z,4.17
2019-06-07T12:22:55.285Z,4.40
2019-06-07T12:25:25.000Z,4.28
2019-06-07T12:27:49.505Z,4.00
2019-06-07T12:30:23.495Z,3.90
2019-06-07T12:32:44.320Z,3.65
2019-06-07T12:35:11.496Z,3.35
2019-06-07T12:37:44.599Z,3.80
2019-06-07T12:40:07.113Z,3.70
2019-06-07T12:42:33.328Z,3.20
2019-06-07T12:44:59.429Z,3.20
2019-06-07T12:47:25.609Z,2.80
2019-06-07T12:49:51.708Z,2.80
2019-06-07T12:52:20.059Z,2.70
2019-06-07T12:54:46.127Z,2.90
2019-06-07T12:57:13.700Z,2.80
2019-06-07T12:59:40.292Z,2.80
2019-06-07T13:02:06.696Z,2.70
2019-06-07T13:04:33.018Z,2.50
2019-06-07T13:06:59.314Z,2.70
2019-06-07T13:09:25.508Z,2.72
2019-06-07T13:11:51.706Z,2.55
2019-06-07T13:14:18.048Z,2.92
2019-06-07T13:16:44.261Z,2.80
2019-06-07T13:19:10.406Z,2.70
2019-06-07T13:21:36.632Z,2.55
2019-06-07T13:24:03.055Z,2.65
2019-06-07T13:26:29.126Z,2.50
2019-06-07T13:28:55.240Z,2.45
2019-06-07T13:31:23.451Z,2.90
2019-06-07T13:33:49.781Z,2.70
2019-06-07T13:36:16.090Z,2.50
2019-06-07T13:38:42.227Z,2.90
2019-06-07T13:41:08.541Z,2.90
2019-06-07T13:43:35.772Z,2.90
2019-06-07T13:46:03.064Z,2.95
2019-06-07T13:48:29.138Z,2.85
2019-06-07T13:50:55.378Z,2.65
2019-06-07T13:53:22.721Z,2.87
2019-06-07T13:55:49.052Z,2.70
2019-06-07T13:58:15.256Z,2.80
2019-06-07T14:00:42.541Z,3.00
2019-06-07T14:03:08.950Z,3.02
2019-06-07T14:05:35.152Z,3.22
2019-06-07T14:08:01.333Z,3.20
2019-06-07T14:10:27.631Z,3.02
2019-06-07T14:12:53.889Z,3.30
2019-06-07T14:15:20.578Z,3.08
2019-06-07T14:17:47.035Z,3.02
2019-06-07T14:20:13.620Z,2.90
2019-06-07T14:22:39.999Z,3.10
2019-06-07T14:25:08.339Z,3.15
2019-06-07T14:27:34.557Z,3.35
2019-06-07T14:30:00.646Z,3.25
2019-06-07T14:32:26.870Z,3.10
2019-06-07T14:34:52.963Z,2.98
2019-06-07T14:37:19.032Z,3.10
2019-06-07T14:39:46.315Z,3.22
2019-06-07T14:42:12.444Z,3.00
2019-06-07T14:44:38.644Z,3.00
2019-06-07T14:47:04.835Z,3.20
2019-06-07T14:49:32.528Z,3.10
2019-06-07T14:51:58.853Z,2.90
2019-06-07T14:54:25.060Z,3.40
2019-06-07T14:56:51.274Z,3.05
2019-06-07T14:59:17.584Z,3.20
2019-06-07T15:01:43.693Z,3.20
2019-06-07T15:04:09.941Z,3.22
2019-06-07T15:06:36.160Z,3.40
2019-06-07T15:09:05.377Z,3.17
2019-06-07T15:11:33.035Z,2.87
2019-06-07T15:13:59.258Z,2.80
2019-06-07T15:16:25.475Z,2.98
2019-06-07T15:18:51.792Z,2.92
2019-06-07T15:21:17.998Z,2.90
2019-06-07T15:23:44.512Z,3.62
2019-06-07T15:26:10.799Z,5.62
2019-06-07T15:28:38.481Z,4.20
2019-06-07T15:31:04.810Z,3.20
2019-06-07T15:33:31.829Z,2.92
2019-06-07T15:35:58.015Z,3.30
2019-06-07T15:38:24.108Z,3.20
2019-06-07T15:40:50.204Z,3.52
2019-06-07T15:43:16.331Z,3.22
2019-06-07T15:45:43.248Z,2.98
2019-06-07T15:48:09.358Z,3.12
2019-06-07T15:50:36.148Z,3.00
2019-06-07T15:53:02.526Z,3.50
2019-06-07T15:55:28.592Z,3.72
2019-06-07T15:57:54.925Z,4.47
2019-06-07T16:00:21.329Z,3.35
2019-06-07T16:02:47.389Z,3.15
2019-06-07T16:05:14.480Z,3.60
2019-06-07T16:07:40.765Z,6.22
2019-06-07T16:10:07.739Z,3.27
2019-06-07T16:12:34.577Z,3.98
2019-06-07T16:15:00.749Z,3.40
2019-06-07T16:17:27.082Z,3.52
2019-06-07T16:19:53.415Z,3.40
2019-06-07T16:22:19.576Z,5.20
2019-06-07T16:24:45.805Z,4.50
2019-06-07T16:27:12.126Z,6.00
2019-06-07T16:29:38.592Z,3.40
2019-06-07T16:32:04.814Z,3.65
2019-06-07T16:34:31.186Z,3.30
2019-06-07T16:36:57.263Z,3.60
2019-06-07T16:39:23.603Z,3.80
2019-06-07T16:41:49.802Z,4.72
2019-06-07T16:44:15.914Z,3.83
2019-06-07T16:46:42.915Z,4.60
2019-06-07T16:49:09.153Z,3.80
2019-06-07T16:51:35.368Z,3.80
2019-06-07T16:54:01.791Z,3.87
2019-06-07T16:56:28.297Z,4.55
2019-06-07T16:58:54.645Z,3.75
2019-06-07T17:01:20.845Z,3.55
2019-06-07T17:03:47.615Z,3.72
2019-06-07T17:06:13.983Z,3.67
2019-06-07T17:08:40.283Z,3.70
2019-06-07T17:11:06.589Z,3.55
2019-06-07T17:13:33.953Z,4.10
2019-06-07T17:16:00.456Z,4.08
2019-06-07T17:18:26.661Z,4.42
2019-06-07T17:20:52.784Z,4.10
2019-06-07T17:23:18.870Z,4.00
2019-06-07T17:25:45.438Z,4.03
2019-06-07T17:28:12.376Z,4.08
2019-06-07T17:30:39.780Z,4.35
2019-06-07T17:33:06.328Z,4.28
2019-06-07T17:35:32.548Z,4.30
2019-06-07T17:37:58.873Z,4.55
2019-06-07T17:40:25.079Z,4.03
2019-06-07T17:42:51.333Z,4.53
2019-06-07T17:45:19.737Z,4.45
2019-06-07T17:47:46.071Z,4.50
2019-06-07T17:50:14.411Z,3.92
2019-06-07T17:52:41.786Z,4.33
2019-06-07T17:55:09.928Z,4.22
2019-06-07T17:57:36.319Z,4.60
2019-06-07T18:00:27.726Z,4.67
2019-06-07T18:02:35.613Z,4.40
2019-06-07T18:05:02.408Z,4.40
2019-06-07T18:07:29.829Z,3.90
2019-06-07T18:09:56.526Z,3.80
2019-06-07T18:12:22.826Z,5.83
2019-06-07T18:14:49.994Z,7.57
2019-06-07T18:17:16.307Z,9.47
2019-06-07T18:19:43.319Z,7.50
2019-06-07T18:22:10.796Z,6.10
2019-06-07T18:24:37.024Z,6.43
2019-06-07T18:27:06.867Z,6.93
2019-06-07T18:29:31.544Z,6.23
2019-06-07T18:32:00.204Z,4.40
2019-06-07T18:34:25.761Z,3.73
2019-06-07T18:36:53.123Z,2.63
2019-06-07T18:39:19.289Z,2.60
2019-06-07T18:41:45.505Z,2.50
2019-06-07T18:44:21.237Z,2.40
2019-06-07T18:46:40.029Z,2.70
2019-06-07T18:49:06.265Z,3.13
2019-06-07T18:51:32.495Z,2.80
2019-06-07T18:53:58.659Z,2.87
2019-06-07T18:56:25.725Z,2.60
2019-06-07T18:58:53.079Z,3.30
2019-06-07T19:01:19.584Z,3.23
2019-06-07T19:03:47.144Z,3.27
2019-06-07T19:06:14.114Z,2.73
2019-06-07T19:08:40.377Z,2.50
2019-06-07T19:11:07.672Z,2.40
2019-06-07T19:13:33.871Z,2.30
2019-06-07T19:16:00.071Z,2.37
2019-06-07T19:18:26.316Z,2.00
2019-06-07T19:20:54.191Z,1.77
2019-06-07T19:23:20.588Z,2.23
2019-06-07T19:25:46.910Z,1.87
2019-06-07T19:28:13.018Z,1.77
2019-06-07T19:30:39.319Z,1.70
2019-06-07T19:33:05.488Z,1.60
2019-06-07T19:35:31.757Z,1.60
2019-06-07T19:37:58.034Z,1.70
2019-06-07T19:40:24.251Z,2.00
2019-06-07T19:42:52.070Z,1.70
2019-06-07T19:45:34.235Z,2.00
2019-06-07T19:47:47.867Z,1.40
2019-06-07T19:50:14.394Z,1.60
2019-06-07T19:52:40.595Z,1.70
2019-06-07T19:55:09.955Z,1.80
2019-06-07T19:57:36.802Z,2.07
2019-06-07T20:00:13.594Z,2.00
2019-06-07T20:02:34.758Z,2.00
2019-06-07T20:05:04.736Z,2.10
2019-06-07T20:07:30.276Z,2.00
2019-06-07T20:09:56.586Z,2.10
2019-06-07T20:12:23.034Z,2.27
2019-06-07T20:14:49.168Z,2.00
2019-06-07T20:17:15.289Z,2.20
2019-06-07T20:19:41.539Z,1.80
2019-06-07T20:22:07.718Z,1.83
2019-06-07T20:24:33.979Z,1.80
2019-06-07T20:27:02.331Z,1.60
2019-06-07T20:29:30.183Z,1.80
2019-06-07T20:31:56.566Z,2.10
2019-06-07T20:34:22.787Z,1.93
2019-06-07T20:36:48.918Z,2.10
2019-06-07T20:39:15.148Z,1.83
2019-06-07T20:41:41.606Z,2.30
2019-06-07T20:44:08.147Z,2.00
2019-06-07T20:46:34.402Z,1.83
2019-06-07T20:49:02.221Z,2.50
2019-06-07T20:51:28.453Z,2.30
2019-06-07T20:53:54.655Z,2.20
2019-06-07T20:56:24.387Z,2.73
2019-06-07T20:58:49.309Z,2.00
2019-06-07T21:01:15.649Z,1.70
2019-06-07T21:03:41.954Z,2.23
2019-06-07T21:06:08.032Z,2.10
2019-06-07T21:08:34.203Z,2.20
2019-06-07T21:11:01.624Z,2.03
2019-06-07T21:13:28.862Z,2.10
2019-06-07T21:15:55.087Z,2.40
2019-06-07T21:18:21.420Z,2.20
2019-06-07T21:20:47.624Z,1.80
2019-06-07T21:23:13.798Z,1.60
2019-06-07T21:25:39.914Z,1.90
2019-06-07T21:28:07.246Z,1.60
2019-06-07T21:30:33.435Z,1.70
2019-06-07T21:32:59.657Z,1.43
2019-06-07T21:35:25.984Z,1.80
2019-06-07T21:37:52.148Z,1.90
2019-06-07T21:40:18.440Z,1.70
2019-06-07T21:42:44.617Z,1.43
2019-06-07T21:45:11.887Z,1.70
2019-06-07T21:47:38.283Z,1.60
2019-06-07T21:50:06.638Z,1.50
2019-06-07T21:52:32.862Z,1.47
2019-06-07T21:54:58.950Z,1.70
2019-06-07T21:57:25.055Z,1.50
2019-06-07T21:59:51.270Z,1.53
2019-06-07T22:02:17.706Z,1.50
2019-06-07T22:04:43.930Z,1.50
2019-06-07T22:07:11.480Z,1.30
2019-06-07T22:09:37.715Z,1.57
2019-06-07T22:12:04.535Z,1.20
2019-06-07T22:14:31.070Z,1.30
2019-06-07T22:16:57.251Z,1.60
2019-06-07T22:19:23.371Z,1.23
2019-06-07T22:22:02.211Z,1.23
2019-06-07T22:24:17.555Z,1.27
2019-06-07T22:26:43.738Z,1.10
2019-06-07T22:29:10.347Z,1.17
2019-06-07T22:31:36.682Z,1.30
2019-06-07T22:34:03.427Z,1.30
2019-06-07T22:36:29.859Z,1.30
2019-06-07T22:38:55.935Z,1.20
2019-06-07T22:41:23.244Z,1.40
2019-06-07T22:43:49.329Z,1.50
2019-06-07T22:46:15.519Z,2.50
2019-06-07T22:48:41.791Z,1.10
2019-06-07T22:51:11.333Z,1.13
2019-06-07T22:53:38.969Z,1.60
2019-06-07T22:56:07.746Z,0.90
2019-06-07T22:58:34.000Z,1.20
2019-06-07T23:01:00.110Z,1.30
2019-06-07T23:03:26.220Z,1.10
2019-06-07T23:05:52.388Z,1.30
2019-06-07T23:08:19.095Z,1.30
2019-06-07T23:10:45.372Z,1.37
2019-06-07T23:13:11.568Z,1.00
2019-06-07T23:15:37.650Z,1.30
2019-06-07T23:18:03.880Z,1.20
2019-06-07T23:20:31.458Z,1.10
2019-06-07T23:22:57.555Z,1.30
2019-06-07T23:25:24.709Z,1.17
2019-06-07T23:27:51.027Z,1.20
2019-06-07T23:30:21.445Z,1.30
2019-06-07T23:32:47.490Z,1.20
2019-06-07T23:35:14.813Z,1.20
2019-06-07T23:37:41.276Z,1.20
2019-06-07T23:40:07.854Z,1.40
2019-06-07T23:42:33.972Z,1.40
2019-06-07T23:45:00.035Z,1.10
2019-06-07T23:47:26.126Z,1.50
2019-06-07T23:49:52.197Z,1.47
2019-06-07T23:52:18.350Z,1.40
2019-06-07T23:54:44.444Z,1.20
2019-06-07T23:57:12.025Z,1.50
2019-06-07T23:59:38.387Z,1.20
